aviador You're here:

KABR Decoded Metar

ABERDEEN in SD, USA
Report Time2017-09-26 03:28:00
UTC Time2017-09-26 03:37:03
Flight Rules mvfr MVFR
Wind030° at 03 kt
W.Decomp.*RWY 35: 2.5 kt HW 1.6 kt RCW
RWY 31: 0.9 kt HW 2.9 kt RCW
W.Rank030° ranks 15
Current wind is below 030° avg. (9.2)
Visibility9999 m
Phenomena:Light Rain
Clouds:Overcast 013 Hf
Expected CloudBase > 400 ft AGL from Temp-Dew spread
Ceiling1,300 ft
Temp09°C (ISA -3)
Dew Point08°C (94% RH)
AAT7.5°C
QNH1020 hPa
Density Alt807 ft
Elevation1,302 ft
Report Wrong Elevation
Raw Report
KABR 260328Z AUTO 03003KT 10SM -RA OVC013 09/08 A3012 RMK AO2
RAB07 P0001 T00940083=

Extra information for KABR:More info

Metar Taf Metar & Taf Last 4 Metars F.Rules Stats Wind Profile Meteogram Temp Stats Airport Information Weather charts Add Link Nearby VenuesMetar ALERT Operation Metar Decoded Social comments

AIRNAV info for KABR